createdAt,value
2022-10-02T00:02:27.392Z,99220.73
2022-10-02T00:05:29.861Z,99226.34
2022-10-02T00:08:23.284Z,99227.65
2022-10-02T00:11:20.848Z,99226.34
2022-10-02T00:14:05.408Z,99225.30
2022-10-02T00:16:42.509Z,99227.99
2022-10-02T00:19:15.764Z,99231.48
2022-10-02T00:22:06.399Z,99232.75
2022-10-02T00:25:00.294Z,99226.10
2022-10-02T00:28:11.802Z,99231.35
2022-10-02T00:30:56.133Z,99227.62
2022-10-02T00:33:53.805Z,99227.34
2022-10-02T00:37:06.751Z,99229.89
2022-10-02T00:40:13.412Z,99226.33
2022-10-02T00:43:27.682Z,99231.58
2022-10-02T00:46:04.558Z,99236.67
2022-10-02T00:49:12.368Z,99234.88
2022-10-02T00:52:19.354Z,99233.20
2022-10-02T00:55:13.276Z,99237.17
2022-10-02T00:58:22.178Z,99235.93
2022-10-02T01:01:23.027Z,99239.37
2022-10-02T01:03:54.658Z,99239.01
2022-10-02T01:06:29.197Z,99240.04
2022-10-02T01:08:59.530Z,99241.36
2022-10-02T01:11:31.329Z,99240.99
2022-10-02T01:14:15.491Z,99240.80
2022-10-02T01:16:45.939Z,99238.35
2022-10-02T01:19:46.551Z,99240.17
2022-10-02T01:22:18.159Z,99244.88
2022-10-02T01:24:54.864Z,99243.60
2022-10-02T01:27:39.428Z,99248.00
2022-10-02T01:30:12.866Z,99247.83
2022-10-02T01:32:48.110Z,99251.15
2022-10-02T01:35:20.497Z,99255.31
2022-10-02T01:37:51.643Z,99249.48
2022-10-02T01:40:35.083Z,99249.93
2022-10-02T01:43:24.514Z,99261.95
2022-10-02T01:46:14.241Z,99262.46
2022-10-02T01:49:21.725Z,99263.23
2022-10-02T01:52:07.708Z,99263.73
2022-10-02T01:54:52.146Z,99266.79
2022-10-02T01:58:12.864Z,99269.39
2022-10-02T02:00:54.282Z,99278.60
2022-10-02T02:03:49.150Z,99276.69
2022-10-02T02:07:03.391Z,99277.67
2022-10-02T02:09:59.650Z,99283.96
2022-10-02T02:12:45.840Z,99278.04
2022-10-02T02:15:24.147Z,99280.09
2022-10-02T02:18:17.740Z,99287.67
2022-10-02T02:21:09.425Z,99294.48
2022-10-02T02:23:41.129Z,99297.31
2022-10-02T02:26:18.983Z,99296.73
2022-10-02T02:29:06.626Z,99298.23
2022-10-02T02:31:53.131Z,99301.41
2022-10-02T02:34:35.968Z,99302.63
2022-10-02T02:37:11.904Z,99304.80
2022-10-02T02:39:58.219Z,99301.27
2022-10-02T02:42:32.715Z,99306.53
2022-10-02T02:45:04.383Z,99307.83
2022-10-02T02:47:52.612Z,99306.23
2022-10-02T02:50:29.686Z,99305.83
2022-10-02T02:53:18.306Z,99307.47
2022-10-02T02:55:51.372Z,99313.10
2022-10-02T02:58:27.844Z,99313.71
2022-10-02T03:00:57.480Z,99320.35
2022-10-02T03:03:26.708Z,99317.99
2022-10-02T03:06:22.572Z,99319.58
2022-10-02T03:08:53.385Z,99310.11
2022-10-02T03:11:44.248Z,99315.02
2022-10-02T03:14:41.875Z,99320.72
2022-10-02T03:17:31.092Z,99319.74
2022-10-02T03:20:12.073Z,99324.12
2022-10-02T03:23:13.573Z,99322.92
2022-10-02T03:25:46.950Z,99324.30
2022-10-02T03:28:50.502Z,99327.33
2022-10-02T03:31:17.685Z,99329.12
2022-10-02T03:33:49.389Z,99332.74
2022-10-02T03:36:20.893Z,99329.75
2022-10-02T03:39:24.263Z,99328.98
2022-10-02T03:41:55.113Z,99333.52
2022-10-02T03:44:38.299Z,99335.20
2022-10-02T03:47:07.474Z,99334.11
2022-10-02T03:49:50.721Z,99333.29
2022-10-02T03:52:35.911Z,99336.89
2022-10-02T03:55:40.023Z,99340.31
2022-10-02T03:58:16.339Z,99341.92
2022-10-02T04:01:01.572Z,99340.87
2022-10-02T04:03:53.639Z,99344.89
2022-10-02T04:06:36.391Z,99345.70
2022-10-02T04:09:12.994Z,99344.71
2022-10-02T04:11:46.701Z,99352.43
2022-10-02T04:14:39.975Z,99352.57
2022-10-02T04:17:14.570Z,99355.38
2022-10-02T04:20:07.628Z,99359.41
2022-10-02T04:22:43.127Z,99357.27
2022-10-02T04:25:19.224Z,99363.93
2022-10-02T04:27:59.776Z,99360.86
2022-10-02T04:30:30.386Z,99358.84
2022-10-02T04:33:12.973Z,99365.31
2022-10-02T04:36:00.852Z,99369.05
2022-10-02T04:38:48.014Z,99368.05
2022-10-02T04:41:26.536Z,99372.45
2022-10-02T04:44:21.508Z,99373.79
2022-10-02T04:47:21.457Z,99375.27
2022-10-02T04:50:15.082Z,99385.25
2022-10-02T04:53:25.702Z,99386.11
2022-10-02T04:56:14.944Z,99383.57
2022-10-02T04:59:24.671Z,99384.58
2022-10-02T05:02:14.219Z,99391.31
2022-10-02T05:05:20.008Z,99385.50
2022-10-02T05:08:05.478Z,99392.81
2022-10-02T05:10:50.266Z,99395.65
2022-10-02T05:13:32.783Z,99399.14
2022-10-02T05:16:43.078Z,99396.03
2022-10-02T05:19:43.025Z,99399.83
2022-10-02T05:22:44.821Z,99403.12
2022-10-02T05:25:32.594Z,99406.40
2022-10-02T05:28:20.065Z,99411.47
2022-10-02T05:30:55.835Z,99413.70
2022-10-02T05:33:55.626Z,99412.46
2022-10-02T05:36:55.687Z,99416.17
2022-10-02T05:39:34.588Z,99417.76
2022-10-02T05:42:06.463Z,99418.75
2022-10-02T05:44:39.943Z,99416.41
2022-10-02T05:47:27.380Z,99420.61
2022-10-02T05:50:04.200Z,99418.66
2022-10-02T05:52:38.494Z,99425.54
2022-10-02T05:55:53.865Z,99429.25
2022-10-02T05:58:51.141Z,99427.23
2022-10-02T06:01:41.988Z,99436.30
2022-10-02T06:04:16.943Z,99440.34
2022-10-02T06:06:54.556Z,99438.73
2022-10-02T06:09:26.691Z,99450.01
2022-10-02T06:12:04.064Z,99450.60
2022-10-02T06:14:39.851Z,99452.31
2022-10-02T06:17:41.613Z,99452.34
2022-10-02T06:20:43.266Z,99457.44
2022-10-02T06:23:40.934Z,99447.96
2022-10-02T06:26:50.302Z,99447.14
2022-10-02T06:30:03.322Z,99456.75
2022-10-02T06:33:11.227Z,99459.50
2022-10-02T06:36:18.296Z,99457.23
2022-10-02T06:39:15.454Z,99460.14
2022-10-02T06:42:03.132Z,99457.88
2022-10-02T06:44:37.656Z,99452.21
2022-10-02T06:47:26.153Z,99453.31
2022-10-02T06:50:24.117Z,99450.61
2022-10-02T06:52:58.371Z,99457.41
2022-10-02T06:55:59.814Z,99453.57
2022-10-02T06:59:06.111Z,99456.96
2022-10-02T07:01:47.576Z,99459.15
2022-10-02T07:04:22.573Z,99465.44
2022-10-02T07:07:09.655Z,99466.15
2022-10-02T07:10:16.180Z,99471.11
2022-10-02T07:12:54.435Z,99466.89
2022-10-02T07:15:41.546Z,99476.00
2022-10-02T07:18:32.367Z,99481.41
2022-10-02T07:21:38.947Z,99486.42
2022-10-02T07:24:34.007Z,99491.80
2022-10-02T07:27:28.681Z,99486.81
2022-10-02T07:30:06.043Z,99483.80
2022-10-02T07:32:52.504Z,99481.02
2022-10-02T07:35:30.535Z,99482.86
2022-10-02T07:38:17.934Z,99487.48
2022-10-02T07:41:23.388Z,99486.25
2022-10-02T07:44:08.482Z,99483.17
2022-10-02T07:47:25.886Z,99484.98
2022-10-02T07:50:31.152Z,99490.97
2022-10-02T07:53:09.037Z,99501.09
2022-10-02T07:55:41.928Z,99502.90
2022-10-02T07:58:28.294Z,99507.27
2022-10-02T08:01:18.597Z,99501.96
2022-10-02T08:03:57.091Z,99502.98
2022-10-02T08:06:27.133Z,99504.14
2022-10-02T08:09:01.355Z,99508.48
2022-10-02T08:11:38.206Z,99509.58
2022-10-02T08:14:18.474Z,99503.07
2022-10-02T08:16:51.610Z,99508.63
2022-10-02T08:19:48.936Z,99503.87
2022-10-02T08:22:34.175Z,99500.78
2022-10-02T08:25:26.145Z,99503.23
2022-10-02T08:28:19.621Z,99498.49
2022-10-02T08:30:48.496Z,99502.54
2022-10-02T08:33:22.864Z,99513.91
2022-10-02T08:36:29.633Z,99515.02
2022-10-02T08:39:23.397Z,99524.23
2022-10-02T08:42:25.163Z,99513.92
2022-10-02T08:45:34.525Z,99507.17
2022-10-02T08:48:40.824Z,99513.20
2022-10-02T08:51:12.354Z,99504.77
2022-10-02T08:54:18.517Z,99510.02
2022-10-02T08:57:05.725Z,99500.20
2022-10-02T09:00:02.859Z,99502.77
2022-10-02T09:02:31.856Z,99497.30
2022-10-02T09:05:26.354Z,99502.05
2022-10-02T09:08:33.581Z,99509.10
2022-10-02T09:11:14.587Z,99503.27
2022-10-02T09:13:49.950Z,99518.63
2022-10-02T09:16:40.003Z,99495.30
2022-10-02T09:19:28.246Z,99494.20
2022-10-02T09:22:05.659Z,99488.96
2022-10-02T09:24:37.663Z,99503.58
2022-10-02T09:27:32.094Z,99502.46
2022-10-02T09:30:28.357Z,99504.20
2022-10-02T09:33:34.566Z,99501.55
2022-10-02T09:36:19.399Z,99499.39
2022-10-02T09:39:25.522Z,99503.25
2022-10-02T09:42:20.383Z,99502.27
2022-10-02T09:45:01.376Z,99495.52
2022-10-02T09:47:43.460Z,99488.06
2022-10-02T09:50:42.488Z,99489.75
2022-10-02T09:53:49.337Z,99503.75
2022-10-02T09:56:56.027Z,99498.64
2022-10-02T09:59:53.888Z,99502.30
2022-10-02T10:02:35.879Z,99510.37
2022-10-02T10:05:23.321Z,99510.20
2022-10-02T10:07:55.443Z,99512.50
2022-10-02T10:10:46.579Z,99513.34
2022-10-02T10:13:37.556Z,99520.80
2022-10-02T10:16:46.087Z,99514.41
2022-10-02T10:19:42.124Z,99516.77
2022-10-02T10:22:20.128Z,99515.09
2022-10-02T10:24:51.914Z,99509.30
2022-10-02T10:27:30.443Z,99506.38
2022-10-02T10:30:27.982Z,99503.38
2022-10-02T10:33:09.253Z,99499.73
2022-10-02T10:35:54.264Z,99498.86
2022-10-02T10:38:35.429Z,99493.09
2022-10-02T10:41:37.606Z,99503.80
2022-10-02T10:44:22.766Z,99492.56
2022-10-02T10:47:23.648Z,99491.93
2022-10-02T10:50:32.300Z,99500.64
2022-10-02T10:53:19.511Z,99497.70
2022-10-02T10:56:26.645Z,99496.07
2022-10-02T10:59:25.586Z,99498.92
2022-10-02T11:02:36.519Z,99494.94
2022-10-02T11:05:28.668Z,99500.20
2022-10-02T11:08:20.159Z,99486.48
2022-10-02T11:10:52.332Z,99487.73
2022-10-02T11:13:54.689Z,99491.91
2022-10-02T11:16:36.310Z,99491.97
2022-10-02T11:19:17.967Z,99485.16
2022-10-02T11:22:21.679Z,99498.26
2022-10-02T11:25:36.105Z,99494.59
2022-10-02T11:28:43.141Z,99490.30
2022-10-02T11:31:41.185Z,99495.67
2022-10-02T11:34:52.709Z,99500.05
2022-10-02T11:37:53.865Z,99488.66
2022-10-02T11:40:44.629Z,99492.44
2022-10-02T11:43:34.956Z,99492.81
2022-10-02T11:46:48.873Z,99488.92
2022-10-02T11:49:45.865Z,99494.95
2022-10-02T11:52:59.915Z,99502.43
2022-10-02T11:55:31.659Z,99494.90
2022-10-02T11:58:05.128Z,99494.16
2022-10-02T12:01:06.106Z,99494.73
2022-10-02T12:04:24.684Z,99500.67
2022-10-02T12:07:11.008Z,99495.91
2022-10-02T12:10:31.177Z,99489.27
2022-10-02T12:13:25.589Z,99482.48
2022-10-02T12:16:11.580Z,99488.64
2022-10-02T12:19:09.039Z,99489.23
2022-10-02T12:22:13.008Z,99492.90
2022-10-02T12:25:11.213Z,99496.88
2022-10-02T12:27:52.483Z,99490.52
2022-10-02T12:30:28.505Z,99494.98
2022-10-02T12:33:36.662Z,99493.23
2022-10-02T12:36:33.709Z,99500.38
2022-10-02T12:39:27.100Z,99490.33
2022-10-02T12:42:02.086Z,99495.07
2022-10-02T12:44:39.648Z,99487.20
2022-10-02T12:47:38.642Z,99484.95
2022-10-02T12:50:37.303Z,99476.55
2022-10-02T12:53:37.585Z,99477.23
2022-10-02T12:56:42.480Z,99481.22
2022-10-02T12:59:50.183Z,99473.55
2022-10-02T13:02:59.735Z,99473.46
2022-10-02T13:06:08.200Z,99467.21
2022-10-02T13:09:09.124Z,99466.23
2022-10-02T13:11:57.019Z,99467.54
2022-10-02T13:15:04.547Z,99462.30
2022-10-02T13:18:13.690Z,99462.83
2022-10-02T13:21:07.650Z,99473.48
2022-10-02T13:23:43.123Z,99466.13
2022-10-02T13:26:31.232Z,99455.40
2022-10-02T13:29:10.298Z,99453.04
2022-10-02T13:32:04.602Z,99456.87
2022-10-02T13:35:02.657Z,99452.05
2022-10-02T13:37:59.525Z,99450.27
2022-10-02T13:40:47.449Z,99444.48
2022-10-02T13:43:58.407Z,99444.67
2022-10-02T13:46:46.097Z,99444.74
2022-10-02T13:49:22.224Z,99442.06
2022-10-02T13:52:30.305Z,99449.00
2022-10-02T13:55:06.630Z,99431.83
2022-10-02T13:57:58.024Z,99432.55
2022-10-02T14:00:39.336Z,99429.59
2022-10-02T14:03:55.926Z,99425.59
2022-10-02T14:06:45.513Z,99426.91
2022-10-02T14:09:14.892Z,99425.33
2022-10-02T14:11:46.221Z,99419.61
2022-10-02T14:14:38.478Z,99415.38
2022-10-02T14:17:40.051Z,99421.95
2022-10-02T14:20:36.102Z,99412.66
2022-10-02T14:23:38.487Z,99410.70
2022-10-02T14:26:44.970Z,99410.54
2022-10-02T14:29:38.803Z,99401.96
2022-10-02T14:32:15.301Z,99398.23
2022-10-02T14:34:53.459Z,99398.11
2022-10-02T14:38:00.974Z,99405.15
2022-10-02T14:40:58.652Z,99403.79
2022-10-02T14:44:09.021Z,99409.86
2022-10-02T14:47:15.408Z,99414.23
2022-10-02T14:49:59.806Z,99409.15
2022-10-02T14:52:53.619Z,99412.45
2022-10-02T14:56:10.779Z,99412.34
2022-10-02T14:59:11.590Z,99418.39
2022-10-02T15:02:03.614Z,99414.35
2022-10-02T15:05:23.554Z,99415.63
2022-10-02T15:11:00.346Z,99414.94
2022-10-02T15:13:46.073Z,99408.73
2022-10-02T15:16:35.670Z,99410.89
2022-10-02T15:19:26.192Z,99409.27
2022-10-02T15:22:32.145Z,99411.22
2022-10-02T15:25:18.189Z,99412.92
2022-10-02T15:28:35.635Z,99413.79
2022-10-02T15:31:25.687Z,99411.91
2022-10-02T15:34:09.569Z,99411.20
2022-10-02T15:37:23.770Z,99416.58
2022-10-02T15:40:17.252Z,99420.42
2022-10-02T15:43:29.153Z,99420.66
2022-10-02T15:46:34.766Z,99423.43
2022-10-02T15:49:23.379Z,99422.54
2022-10-02T15:52:10.949Z,99421.78
2022-10-02T15:54:57.109Z,99421.98
2022-10-02T15:57:44.999Z,99421.56
2022-10-02T16:00:16.717Z,99418.34
2022-10-02T16:03:24.671Z,99420.27
2022-10-02T16:05:56.191Z,99419.02
2022-10-02T16:09:00.394Z,99416.48
2022-10-02T16:12:04.060Z,99414.70
2022-10-02T16:15:04.729Z,99419.28
2022-10-02T16:18:14.475Z,99419.61
2022-10-02T16:21:08.344Z,99419.27
2022-10-02T16:24:09.499Z,99422.60
2022-10-02T16:27:01.870Z,99425.75
2022-10-02T16:29:52.892Z,99428.70
2022-10-02T16:32:51.958Z,99425.56
2022-10-02T16:35:43.872Z,99427.77
2022-10-02T16:38:19.421Z,99423.46
2022-10-02T16:40:58.869Z,99414.33
2022-10-02T16:46:44.573Z,99418.92
2022-10-02T16:49:44.599Z,99416.89
2022-10-02T16:52:43.603Z,99418.92
2022-10-02T16:55:31.425Z,99419.27
2022-10-02T17:01:33.988Z,99444.66
2022-10-02T17:04:13.423Z,99463.84
2022-10-02T17:07:07.437Z,99475.11
2022-10-02T17:09:48.662Z,99474.77
2022-10-02T17:12:30.602Z,99468.54
2022-10-02T17:15:23.491Z,99466.42
2022-10-02T17:18:13.891Z,99459.27
2022-10-02T17:20:50.073Z,99456.21
2022-10-02T17:23:53.984Z,99457.05
2022-10-02T17:26:56.503Z,99458.78
2022-10-02T17:30:03.917Z,99454.92
2022-10-02T17:32:46.205Z,99455.69
2022-10-02T17:35:19.528Z,99455.92
2022-10-02T17:38:30.166Z,99457.63
2022-10-02T17:41:36.960Z,99461.32
2022-10-02T17:44:41.876Z,99454.40
2022-10-02T17:47:32.707Z,99459.86
2022-10-02T17:50:20.948Z,99468.28
2022-10-02T17:53:30.125Z,99472.56
2022-10-02T17:56:53.075Z,99473.67
2022-10-02T17:59:48.828Z,99475.75
2022-10-02T18:02:53.320Z,99469.95
2022-10-02T18:05:44.070Z,99470.83
2022-10-02T18:08:30.458Z,99471.61
2022-10-02T18:11:18.227Z,99469.70
2022-10-02T18:14:24.616Z,99472.48
2022-10-02T18:17:12.756Z,99463.14
2022-10-02T18:20:48.243Z,99467.81
2022-10-02T18:23:17.263Z,99466.58
2022-10-02T18:26:18.102Z,99468.31
2022-10-02T18:28:57.838Z,99474.33
2022-10-02T18:32:07.938Z,99474.52
2022-10-02T18:34:54.774Z,99474.44
2022-10-02T18:37:47.861Z,99479.77
2022-10-02T18:40:55.059Z,99481.36
2022-10-02T18:44:07.563Z,99482.15
2022-10-02T18:47:00.099Z,99479.52
2022-10-02T18:50:07.604Z,99487.82
2022-10-02T18:52:52.186Z,99491.33
2022-10-02T18:55:49.918Z,99490.42
2022-10-02T18:59:10.125Z,99492.45
2022-10-02T19:02:06.055Z,99484.73
2022-10-02T19:05:17.325Z,99481.14
2022-10-02T19:08:11.843Z,99482.67
2022-10-02T19:10:47.318Z,99479.42
2022-10-02T19:13:39.745Z,99481.71
2022-10-02T19:16:23.202Z,99485.14
2022-10-02T19:19:24.603Z,99486.10
2022-10-02T19:21:59.233Z,99485.53
2022-10-02T19:24:38.371Z,99486.55
2022-10-02T19:27:31.298Z,99482.45
2022-10-02T19:30:29.068Z,99479.63
2022-10-02T19:33:03.323Z,99481.48
2022-10-02T19:35:45.197Z,99485.33
2022-10-02T19:38:42.187Z,99487.40
2022-10-02T19:41:15.718Z,99485.08
2022-10-02T19:43:54.822Z,99484.25
2022-10-02T19:46:36.162Z,99482.78
2022-10-02T19:49:07.169Z,99482.17
2022-10-02T19:51:45.877Z,99479.77
2022-10-02T19:54:28.158Z,99483.58
2022-10-02T19:57:11.918Z,99481.91
2022-10-02T19:59:46.708Z,99484.23
2022-10-02T20:02:31.501Z,99481.50
2022-10-02T20:05:42.393Z,99479.36
2022-10-02T20:08:19.699Z,99482.73
2022-10-02T20:10:58.292Z,99482.50
2022-10-02T20:13:49.974Z,99478.73
2022-10-02T20:16:42.668Z,99477.79
2022-10-02T20:19:20.026Z,99480.32
2022-10-02T20:21:53.155Z,99480.23
2022-10-02T20:24:36.207Z,99476.45
2022-10-02T20:27:18.126Z,99477.41
2022-10-02T20:29:54.178Z,99479.50
2022-10-02T20:32:28.942Z,99477.67
2022-10-02T20:35:07.596Z,99478.94
2022-10-02T20:37:37.402Z,99472.93
2022-10-02T20:40:21.947Z,99474.48
2022-10-02T20:43:19.996Z,99471.90
2022-10-02T20:46:02.954Z,99471.23
2022-10-02T20:49:03.483Z,99470.35
2022-10-02T20:51:52.838Z,99468.54
2022-10-02T20:54:59.942Z,99469.60
2022-10-02T20:57:59.510Z,99467.43
2022-10-02T21:00:55.998Z,99469.05
2022-10-02T21:06:54.981Z,99461.66
2022-10-02T21:09:57.888Z,99458.09
2022-10-02T21:12:33.223Z,99460.11
2022-10-02T21:15:20.778Z,99454.88
2022-10-02T21:18:11.294Z,99457.36
2022-10-02T21:21:19.622Z,99449.53
2022-10-02T21:24:07.272Z,99451.10
2022-10-02T21:27:04.573Z,99450.98
2022-10-02T21:29:44.360Z,99448.70
2022-10-02T21:32:41.245Z,99447.09
2022-10-02T21:35:18.185Z,99450.08
2022-10-02T21:38:28.349Z,99445.41
2022-10-02T21:41:00.499Z,99446.85
2022-10-02T21:44:03.594Z,99441.85
2022-10-02T21:47:10.569Z,99443.63
2022-10-02T21:50:12.686Z,99447.71
2022-10-02T21:53:12.567Z,99438.39
2022-10-02T21:56:12.986Z,99438.14
2022-10-02T21:59:26.788Z,99434.27
2022-10-02T22:02:34.063Z,99431.98
2022-10-02T22:05:47.736Z,99426.42
2022-10-02T22:08:55.428Z,99424.30
2022-10-02T22:12:01.351Z,99416.58
2022-10-02T22:14:39.652Z,99418.92
2022-10-02T22:17:25.405Z,99422.11
2022-10-02T22:20:32.102Z,99421.42
2022-10-02T22:23:14.832Z,99417.29
2022-10-02T22:26:05.503Z,99416.23
2022-10-02T22:29:17.941Z,99414.45
2022-10-02T22:32:30.524Z,99409.69
2022-10-02T22:35:20.032Z,99416.13
2022-10-02T22:38:14.822Z,99418.48
2022-10-02T22:41:06.970Z,99414.17
2022-10-02T22:43:57.447Z,99418.67
2022-10-02T22:46:53.463Z,99424.20
2022-10-02T22:49:46.173Z,99424.04
2022-10-02T22:52:56.555Z,99426.95
2022-10-02T22:55:50.651Z,99418.53
2022-10-02T22:58:32.283Z,99419.39
2022-10-02T23:01:12.176Z,99420.98
2022-10-02T23:03:49.864Z,99426.09
2022-10-02T23:06:38.093Z,99421.27
2022-10-02T23:09:33.618Z,99417.34
2022-10-02T23:12:12.605Z,99416.41
2022-10-02T23:14:59.766Z,99420.55
2022-10-02T23:17:53.936Z,99423.89
2022-10-02T23:20:40.001Z,99426.69
2022-10-02T23:23:51.652Z,99425.76
2022-10-02T23:26:39.570Z,99420.85
2022-10-02T23:29:35.663Z,99420.59
2022-10-02T23:32:27.513Z,99419.92
2022-10-02T23:35:21.275Z,99423.41
2022-10-02T23:38:12.135Z,99415.94
2022-10-02T23:41:22.590Z,99422.41
2022-10-02T23:44:13.129Z,99422.71
2022-10-02T23:47:21.503Z,99419.88
2022-10-02T23:49:59.710Z,99423.70
2022-10-02T23:52:41.357Z,99418.30
2022-10-02T23:55:23.380Z,99418.70
2022-10-02T23:58:13.714Z,99419.04
